Terminal Aerodrome Forecast
Issued by NWS Shreveport, LA

Home | Current Version | Previous Version | Text Only | Print | Product List | Glossary On
Versions: 1 2 3 4 5 6 7 8 9 10 11 12 13 14 15 16 17 18 19 20
457
FTUS44 KSHV 270007 RRA
TAFTXK
TAF
KTXK 270007Z 2700/2724 16010KT P6SM SCT070 OVC250
     FM270500 17010KT P6SM VCTS BKN030CB
      TEMPO 2706/2708 18015G25KT 3SM -TSRA BKN025CB OVC040
     FM270900 19011G18KT 5SM -TSRA BR BKN020CB OVC030
     FM271300 22013KT 4SM -SHRA BR BKN015 OVC030
      TEMPO 2713/2716 21012G18KT OVC015
     FM271900 25013G20KT P6SM BKN035=

USA.gov is the U.S. government's official web portal to all federal, state and local government web resources and services.